Airfield :
LOGIN :

Register | Disclaimer

   EN    FR    IT 

 










Legend :    VFR   Marginal VFR   IFR   Intensive IFR   Very Intensive IFR
Visi :
Ceiling :
>= 8 km
>= 3000ft
5 to 8 km
1000 to 3000 ft
1500m to 5 km
500 to 1000 ft
800 to 1500m
200 to 500 ft
< 800m
< 200 ft
Symbols :   Thunderstorms  Fog  Heavy snow  Heavy precipitations  Wind > 20 kt
SIGMETs :     Misc.  Thunderstorms  Icing  Turbulence  Mountain Waves  Volcanic Ashes






- Airport Elevation : 375 ft
- IATA code : MST


EHBK - Maastricht Aachen

CURRENT METAR :
  • 011225Z AUTO 04009KT 8000 BKN008 BKN009 OVC011 06/04 Q1026 NOSIG

EXPIRED METARs :
  • 011155Z AUTO 03009KT 8000 SCT008/// BKN009/// OVC011/// 05/04 Q1026 TEMPO BKN011
  • 011125Z AUTO 35007KT 320V030 8000 SCT008 OVC009 06/04 Q1026 TEMPO BKN011
  • 011055Z AUTO 03006KT 360V070 9999 BKN009/// OVC011/// 06/04 Q1026 TEMPO BKN011
  • 011025Z AUTO 03008KT 360V060 9999 OVC010 05/03 Q1027 TEMPO BKN008
  • 010955Z AUTO 04007KT 010V070 8000 SCT008 BKN009 OVC010 05/04 Q1027 TEMPO BKN010

TAF TAF EHBK
Valid from the 01 at 12:00 until the 02 at 18:00 UTC


011118Z 0112/0218 03008KT 8000 BKN012
PROB40 0112/0203 6000 BKN006
BECMG 0203/0206 BKN006
PROB30 0203/0210 BKN003
BECMG 0210/0213 BKN015
PROB40 0213/0218 BKN008



MET'MAP, your aeronautical weather chart ! - Copyright ORBIFLY December 2007 - Disclaimer

ORBIFLY MET'MAP TEAM :

Programming & Development : Alexandra Zaïnal
Original concept : Baudouin d'Aumeries
Technical & hardware support : Manuel Goepfert
Assistance : Marc-Olivier Méhu




SOURCES & CREDITS :

   NOAA